Time;durP1;ratioP1;P1;durP2;ratioP2;P2;SDS_P1;SDS_P2;PMS_P1;PMS_P2;Temp;Humidity;BMP_temperature;BMP_pressure;BME280_temperature;BME280_humidity;BME280_pressure;Samples;Min_cycle;Max_cycle;Signal;HPM_P1;HPM_P2
2021/07/06 00:00:49;;;;;;;11.70;3.55;;;;;;;23.06;45.06;97106.59;5051661;28;20385;-72
2021/07/06 00:03:15;;;;;;;10.88;3.63;;;;;;;23.04;45.03;97102.38;5053096;28;20103;-72
2021/07/06 00:05:40;;;;;;;12.10;4.03;;;;;;;23.06;45.03;97098.38;5052865;28;20029;-72
2021/07/06 00:08:06;;;;;;;15.20;4.50;;;;;;;23.03;45.35;97106.16;5053036;28;20029;-71
2021/07/06 00:10:32;;;;;;;11.63;4.03;;;;;;;23.03;45.28;97103.41;5053022;28;20029;-72
2021/07/06 00:12:57;;;;;;;13.18;4.45;;;;;;;23.07;45.35;97110.16;5035500;28;20132;-72
2021/07/06 00:15:23;;;;;;;12.57;4.45;;;;;;;22.94;45.92;97112.88;5052753;28;20025;-71
2021/07/06 00:17:50;;;;;;;12.88;4.65;;;;;;;22.94;45.95;97107.41;5052892;28;20032;-71
2021/07/06 00:20:16;;;;;;;13.15;4.70;;;;;;;22.85;46.49;97110.34;5053315;28;20029;-69
2021/07/06 00:22:42;;;;;;;12.40;4.85;;;;;;;22.82;46.63;97101.69;5052610;28;20025;-69
2021/07/06 00:25:08;;;;;;;13.38;4.70;;;;;;;22.81;47.08;97100.84;5052958;28;20025;-69
2021/07/06 00:27:33;;;;;;;19.77;5.10;;;;;;;22.85;46.77;97106.75;5052439;28;20029;-69
2021/07/06 00:29:59;;;;;;;14.40;5.25;;;;;;;22.79;46.91;97102.94;5034546;28;20032;-69
2021/07/06 00:32:24;;;;;;;14.32;5.53;;;;;;;22.81;46.94;97110.97;5052327;28;20546;-70
2021/07/06 00:34:50;;;;;;;13.15;5.15;;;;;;;22.85;46.53;97107.59;5052434;28;20090;-69
2021/07/06 00:37:15;;;;;;;12.75;4.65;;;;;;;22.80;46.84;97112.03;5051147;28;20029;-72
2021/07/06 00:39:40;;;;;;;14.00;5.65;;;;;;;22.75;46.70;97107.16;5050446;28;20024;-72
2021/07/06 00:42:08;;;;;;;15.88;5.22;;;;;;;22.80;46.37;97110.13;5050306;28;20123;-72
2021/07/06 00:44:33;;;;;;;15.80;5.03;;;;;;;22.88;45.95;97107.19;5050974;28;20041;-72
2021/07/06 00:46:58;;;;;;;13.63;4.63;;;;;;;22.89;45.93;97111.63;5053965;28;20029;-72
2021/07/06 00:49:24;;;;;;;13.65;4.53;;;;;;;22.95;45.69;97111.84;5053998;28;20389;-72
2021/07/06 00:51:49;;;;;;;11.68;4.50;;;;;;;22.87;46.51;97108.22;5054647;28;20036;-72
2021/07/06 00:54:15;;;;;;;12.85;4.57;;;;;;;22.73;46.92;97112.84;5056266;28;20025;-72
2021/07/06 00:56:40;;;;;;;16.60;4.50;;;;;;;22.75;46.87;97120.84;5055992;28;20040;-71
2021/07/06 00:59:06;;;;;;;11.35;4.40;;;;;;;22.70;47.13;97121.50;5055875;28;20021;-71
2021/07/06 01:01:31;;;;;;;14.13;4.38;;;;;;;22.66;47.28;97111.13;5056058;28;20350;-71
2021/07/06 01:03:56;;;;;;;12.82;4.03;;;;;;;22.55;47.85;97112.56;5054909;28;20033;-71
2021/07/06 01:06:22;;;;;;;11.73;4.00;;;;;;;22.57;48.26;97115.97;5055728;28;20044;-70
2021/07/06 01:08:47;;;;;;;13.93;4.40;;;;;;;22.43;49.02;97114.22;5055879;28;20389;-71
2021/07/06 01:11:15;;;;;;;7.65;3.35;;;;;;;22.27;51.14;97112.63;5054783;28;20021;-71
2021/07/06 01:13:41;;;;;;;8.60;3.50;;;;;;;22.08;51.67;97115.06;5054346;28;20032;-71
2021/07/06 01:16:06;;;;;;;12.90;4.57;;;;;;;22.20;48.89;97112.63;5054415;28;20025;-71
2021/07/06 01:18:32;;;;;;;11.10;4.43;;;;;;;22.39;48.16;97114.63;5055547;28;20037;-71
2021/07/06 01:20:57;;;;;;;17.98;4.75;;;;;;;22.51;47.54;97108.56;5054447;28;20028;-71
2021/07/06 01:23:28;;;;;;;11.88;4.43;;;;;;;22.52;47.37;97104.78;5053632;28;20664;-71
2021/07/06 01:25:57;;;;;;;10.48;4.30;;;;;;;22.42;48.23;97105.13;5053198;28;20029;-71
2021/07/06 01:28:22;;;;;;;10.27;4.20;;;;;;;22.23;48.65;97101.25;5051976;28;20094;-72
2021/07/06 01:30:48;;;;;;;11.10;4.30;;;;;;;22.32;47.91;97090.97;5053413;28;20029;-72
2021/07/06 01:33:25;;;;;;;11.35;3.90;;;;;;;22.30;47.81;97093.91;5053390;28;20033;-72
2021/07/06 01:35:51;;;;;;;9.75;3.95;;;;;;;22.39;47.27;97100.06;5053164;28;20469;-72
2021/07/06 01:38:17;;;;;;;11.00;4.15;;;;;;;22.40;47.14;97096.28;5055356;28;20036;-72
2021/07/06 01:40:42;;;;;;;9.98;3.50;;;;;;;22.27;48.99;97094.31;5055326;28;20025;-72
2021/07/06 01:43:08;;;;;;;8.70;3.28;;;;;;;22.16;48.54;97090.25;5054866;28;20075;-71
2021/07/06 01:45:34;;;;;;;11.02;3.80;;;;;;;22.11;47.84;97089.19;5053867;28;20491;-71
2021/07/06 01:48:01;;;;;;;9.75;3.80;;;;;;;22.05;48.76;97088.09;5054836;28;20040;-72
2021/07/06 01:50:32;;;;;;;12.60;3.70;;;;;;;22.10;49.27;97084.75;5054852;28;20086;-71
2021/07/06 01:52:59;;;;;;;7.63;3.53;;;;;;;22.06;49.63;97089.78;5054700;28;20083;-71
2021/07/06 01:55:27;;;;;;;9.38;3.55;;;;;;;21.87;49.70;97089.50;5054754;28;20109;-71
2021/07/06 01:57:54;;;;;;;8.45;3.33;;;;;;;21.85;50.84;97090.72;5053957;28;20484;-71
2021/07/06 02:00:22;;;;;;;6.60;3.15;;;;;;;21.66;51.28;97081.31;5054628;28;20053;-71
2021/07/06 02:02:49;;;;;;;8.52;3.60;;;;;;;21.80;50.54;97080.38;5054686;28;20087;-71
2021/07/06 02:05:14;;;;;;;7.30;3.22;;;;;;;21.78;51.04;97087.09;5053600;28;20060;-71
2021/07/06 02:07:43;;;;;;;7.00;3.47;;;;;;;21.75;50.64;97085.59;5054504;28;20068;-71
2021/07/06 02:10:10;;;;;;;7.75;3.28;;;;;;;21.69;51.93;97087.25;5054591;28;20062;-71
2021/07/06 02:12:36;;;;;;;8.95;3.28;;;;;;;21.89;50.13;97089.28;5054074;28;20078;-71
2021/07/06 02:15:03;;;;;;;7.20;3.50;;;;;;;21.88;50.55;97095.78;5052121;28;20100;-71
2021/07/06 02:17:29;;;;;;;7.18;3.38;;;;;;;21.92;50.16;97098.97;5054223;28;20035;-72
2021/07/06 02:19:55;;;;;;;6.75;2.92;;;;;;;21.90;50.27;97094.53;5054629;28;20029;-71
2021/07/06 02:22:20;;;;;;;6.72;3.13;;;;;;;21.82;51.74;97096.59;5054260;28;20033;-71
2021/07/06 02:24:45;;;;;;;5.80;2.70;;;;;;;21.66;51.11;97104.09;5054586;28;20480;-71
2021/07/06 02:27:11;;;;;;;7.18;3.33;;;;;;;21.64;51.18;97106.16;5054420;28;20086;-71
2021/07/06 02:29:37;;;;;;;8.00;3.40;;;;;;;21.65;51.13;97113.34;5054411;28;20367;-71
2021/07/06 02:32:03;;;;;;;6.47;2.65;;;;;;;21.67;50.87;97115.88;5053309;28;20111;-71
2021/07/06 02:34:28;;;;;;;5.45;2.40;;;;;;;21.67;50.42;97115.88;5052851;28;20021;-72
2021/07/06 02:36:53;;;;;;;5.20;2.60;;;;;;;21.57;50.70;97114.31;5054265;28;20037;-71
2021/07/06 02:39:19;;;;;;;8.77;3.00;;;;;;;21.39;51.49;97131.22;5052900;28;20036;-72
2021/07/06 02:41:44;;;;;;;5.57;2.75;;;;;;;21.35;51.65;97129.06;5053810;28;20491;-72
2021/07/06 02:44:09;;;;;;;5.85;2.78;;;;;;;21.42;50.86;97127.22;5053828;28;20049;-72
2021/07/06 02:46:35;;;;;;;5.85;2.70;;;;;;;21.46;51.26;97123.06;5053741;28;20079;-71
2021/07/06 02:49:00;;;;;;;4.60;2.65;;;;;;;21.36;51.55;97119.81;5053512;28;20076;-71
2021/07/06 02:51:26;;;;;;;4.32;2.35;;;;;;;21.37;51.75;97125.06;5054004;28;20032;-71
2021/07/06 02:53:51;;;;;;;6.25;2.53;;;;;;;21.39;51.06;97120.28;5054054;28;20021;-71
2021/07/06 02:56:17;;;;;;;3.88;2.30;;;;;;;21.38;50.79;97125.94;5053655;28;20036;-71
2021/07/06 02:58:42;;;;;;;5.88;2.55;;;;;;;21.36;52.13;97130.75;5053707;28;20078;-71
2021/07/06 03:01:09;;;;;;;4.60;2.17;;;;;;;21.33;50.89;97128.41;5053936;28;20053;-71
2021/07/06 03:03:34;;;;;;;6.22;2.13;;;;;;;21.36;50.84;97137.06;5053561;28;20028;-71
2021/07/06 03:06:00;;;;;;;3.95;2.17;;;;;;;21.38;51.15;97123.22;5052288;28;20025;-70
2021/07/06 03:08:29;;;;;;;4.63;2.15;;;;;;;21.23;50.95;97126.84;5053391;28;20025;-71
2021/07/06 03:10:54;;;;;;;3.70;1.90;;;;;;;21.37;49.83;97129.72;5053813;28;20017;-71
2021/07/06 03:13:20;;;;;;;3.70;1.90;;;;;;;21.45;49.14;97128.72;5053533;28;20432;-71
2021/07/06 03:15:45;;;;;;;3.75;1.85;;;;;;;21.28;49.86;97126.25;5053453;28;20021;-72
2021/07/06 03:18:11;;;;;;;2.28;1.90;;;;;;;21.43;49.28;97119.88;5052279;28;20031;-71
2021/07/06 03:20:36;;;;;;;4.82;1.95;;;;;;;21.42;48.53;97116.28;5053305;28;20039;-72
2021/07/06 03:23:03;;;;;;;3.97;1.80;;;;;;;21.40;48.27;97113.72;5052992;28;20021;-71
2021/07/06 03:25:29;;;;;;;3.15;1.65;;;;;;;21.33;48.57;97114.75;5053446;28;20487;-71
2021/07/06 03:27:56;;;;;;;3.60;1.60;;;;;;;21.20;48.65;97115.47;5051894;28;20103;-71
2021/07/06 03:30:24;;;;;;;3.10;1.80;;;;;;;21.23;47.38;97120.53;5052385;28;20051;-71
2021/07/06 03:32:52;;;;;;;1.80;1.50;;;;;;;21.29;47.15;97124.38;5053150;28;20112;-71
2021/07/06 03:35:17;;;;;;;2.33;1.50;;;;;;;21.23;48.66;97124.13;5052295;28;20021;-72
2021/07/06 03:37:43;;;;;;;3.10;1.70;;;;;;;20.83;50.23;97121.00;5053412;28;20078;-72
2021/07/06 03:40:10;;;;;;;3.67;1.50;;;;;;;20.80;50.71;97123.28;5053382;28;20029;-72
2021/07/06 03:42:36;;;;;;;1.60;1.50;;;;;;;20.66;50.58;97138.66;5052450;28;20044;-72
2021/07/06 03:45:03;;;;;;;1.63;1.50;;;;;;;20.67;49.66;97133.00;5052198;28;20029;-72
2021/07/06 03:47:28;;;;;;;3.67;1.70;;;;;;;20.70;49.12;97131.78;5051547;28;20025;-72
2021/07/06 03:49:54;;;;;;;2.03;1.40;;;;;;;20.87;48.13;97133.25;5051659;28;20064;-71
2021/07/06 03:52:19;;;;;;;4.35;1.60;;;;;;;20.99;48.63;97128.09;5053356;28;20036;-72
2021/07/06 03:54:44;;;;;;;1.58;1.48;;;;;;;21.09;48.55;97146.91;5053135;28;20025;-71
2021/07/06 03:57:10;;;;;;;1.55;1.40;;;;;;;21.09;47.93;97137.88;5052949;28;20083;-71
2021/07/06 03:59:35;;;;;;;3.72;1.65;;;;;;;20.53;51.93;97142.91;5053287;28;20033;-71
2021/07/06 04:02:01;;;;;;;3.17;1.80;;;;;;;20.39;53.03;97146.50;5053106;28;20116;-71
2021/07/06 04:04:26;;;;;;;2.95;1.60;;;;;;;20.44;51.61;97144.03;5051965;28;20021;-71
2021/07/06 04:06:52;;;;;;;5.53;1.73;;;;;;;20.31;53.63;97161.13;5052789;28;20040;-71
2021/07/06 04:09:17;;;;;;;3.45;1.80;;;;;;;20.08;53.62;97153.03;5052865;28;20029;-71
2021/07/06 04:11:42;;;;;;;5.00;1.75;;;;;;;20.14;54.17;97163.19;5052728;28;20112;-71
2021/07/06 04:14:09;;;;;;;5.30;1.65;;;;;;;20.11;55.02;97160.84;5051883;28;20029;-72
2021/07/06 04:16:35;;;;;;;4.75;2.00;;;;;;;20.12;54.64;97162.53;5051772;28;20029;-72
2021/07/06 04:19:00;;;;;;;4.63;2.05;;;;;;;20.21;54.71;97166.03;5052676;28;20029;-72
2021/07/06 04:21:26;;;;;;;4.78;1.70;;;;;;;20.27;54.75;97172.59;5056554;28;20036;-72
2021/07/06 04:23:51;;;;;;;2.05;1.70;;;;;;;20.29;53.65;97171.38;5056551;28;20033;-72
2021/07/06 04:26:17;;;;;;;4.68;1.77;;;;;;;20.30;54.65;97166.78;5056778;28;20025;-72
2021/07/06 04:28:42;;;;;;;3.15;1.73;;;;;;;20.37;53.87;97152.16;5056686;28;20068;-72
2021/07/06 04:31:08;;;;;;;2.35;1.50;;;;;;;20.44;53.22;97143.22;5056511;28;20025;-71
2021/07/06 04:33:34;;;;;;;2.53;1.60;;;;;;;20.41;53.00;97147.16;5057031;28;20070;-71
2021/07/06 04:35:59;;;;;;;2.38;1.60;;;;;;;20.57;53.55;97148.84;5055177;28;20096;-70
2021/07/06 04:38:24;;;;;;;4.32;1.90;;;;;;;20.46;53.84;97150.19;5053998;28;20385;-71
2021/07/06 04:40:50;;;;;;;2.40;1.70;;;;;;;20.56;53.41;97155.34;5054954;28;20021;-72
2021/07/06 04:43:16;;;;;;;2.78;1.73;;;;;;;20.97;50.49;97148.47;5056300;28;20124;-72
2021/07/06 04:45:41;;;;;;;3.85;1.70;;;;;;;21.12;53.85;97157.44;5056156;28;20031;-71
2021/07/06 04:48:06;;;;;;;3.17;1.80;;;;;;;20.82;54.24;97154.84;5054876;28;20086;-72
2021/07/06 04:50:35;;;;;;;2.67;2.00;;;;;;;21.11;53.90;97157.66;5054959;28;20028;-72
2021/07/06 04:53:02;;;;;;;2.85;1.85;;;;;;;21.06;54.80;97160.97;5056182;28;20025;-72
2021/07/06 04:55:28;;;;;;;2.15;1.73;;;;;;;20.86;55.76;97164.34;5055975;28;20466;-71
2021/07/06 04:57:53;;;;;;;2.47;1.77;;;;;;;20.97;55.15;97168.44;5055868;28;20025;-71
2021/07/06 05:00:19;;;;;;;2.13;1.80;;;;;;;21.07;55.04;97162.66;5056180;28;20029;-71
2021/07/06 05:02:45;;;;;;;3.72;2.00;;;;;;;21.14;55.18;97163.59;5056190;28;20130;-70
2021/07/06 05:05:12;;;;;;;3.97;1.90;;;;;;;21.25;54.00;97162.22;5054806;28;20024;-71
2021/07/06 05:07:38;;;;;;;4.45;1.90;;;;;;;21.38;53.34;97162.34;5054446;28;20104;-70
2021/07/06 05:10:05;;;;;;;3.47;2.05;;;;;;;21.23;55.76;97165.16;5054949;28;20098;-72
2021/07/06 05:12:31;;;;;;;5.90;1.95;;;;;;;21.37;54.41;97166.09;5055670;28;20032;-73
2021/07/06 05:14:56;;;;;;;3.53;2.10;;;;;;;20.98;57.69;97170.16;5055541;28;20048;-71
2021/07/06 05:17:22;;;;;;;3.65;1.83;;;;;;;20.86;58.17;97172.53;5050254;28;20060;-69
2021/07/06 05:19:47;;;;;;;3.65;2.20;;;;;;;20.94;58.25;97171.56;5054024;28;20415;-72
2021/07/06 05:22:12;;;;;;;5.75;2.65;;;;;;;20.91;58.09;97177.41;5053171;28;20032;-70
2021/07/06 05:24:38;;;;;;;4.95;3.00;;;;;;;20.93;57.92;97182.72;5054540;28;20037;-71
2021/07/06 05:27:04;;;;;;;4.07;2.20;;;;;;;21.04;56.74;97185.75;5054296;28;20024;-71
2021/07/06 05:29:29;;;;;;;4.65;2.25;;;;;;;21.02;57.71;97176.91;5054865;28;20477;-71
2021/07/06 05:31:54;;;;;;;4.55;2.47;;;;;;;21.05;58.20;97178.41;5054520;28;20082;-71
2021/07/06 05:34:20;;;;;;;6.35;2.65;;;;;;;20.93;59.18;97172.63;5036779;28;20025;-71
2021/07/06 05:36:47;;;;;;;5.55;2.50;;;;;;;20.88;59.39;97175.06;5054355;28;20056;-71
2021/07/06 05:39:13;;;;;;;4.82;2.28;;;;;;;20.92;58.55;97178.28;5054476;28;20118;-73
2021/07/06 05:41:38;;;;;;;3.83;2.40;;;;;;;20.94;58.15;97181.66;5053896;28;20543;-71
2021/07/06 05:44:04;;;;;;;4.70;2.70;;;;;;;20.95;59.18;97180.63;5053591;28;20095;-72
2021/07/06 05:46:29;;;;;;;6.80;2.55;;;;;;;20.93;59.25;97177.25;5053649;28;20021;-69
2021/07/06 05:48:55;;;;;;;8.30;2.50;;;;;;;21.00;59.42;97172.69;5052622;28;20028;-72
2021/07/06 05:51:21;;;;;;;6.70;3.10;;;;;;;20.89;60.40;97163.09;5052882;28;20029;-69
2021/07/06 05:53:49;;;;;;;6.85;3.40;;;;;;;21.12;59.71;97164.81;5053857;28;20025;-68
2021/07/06 05:56:18;;;;;;;6.38;3.00;;;;;;;21.19;60.27;97171.19;5052667;28;20108;-68
2021/07/06 05:58:43;;;;;;;7.50;3.08;;;;;;;21.27;59.80;97175.69;5052687;28;20032;-69
2021/07/06 06:01:09;;;;;;;8.27;3.00;;;;;;;21.41;59.73;97170.13;5051812;28;20120;-65
2021/07/06 06:03:34;;;;;;;5.53;3.10;;;;;;;21.50;59.80;97172.72;5051741;28;20431;-65
2021/07/06 06:06:01;;;;;;;6.10;2.80;;;;;;;21.69;58.11;97165.78;5053944;28;20033;-64
2021/07/06 06:08:26;;;;;;;6.55;2.70;;;;;;;21.85;57.27;97167.38;5053205;28;20033;-64
2021/07/06 06:10:52;;;;;;;4.18;2.40;;;;;;;21.86;55.69;97172.66;5050313;28;20028;-66
2021/07/06 06:13:17;;;;;;;3.95;2.50;;;;;;;22.08;55.85;97172.59;5050418;28;20025;-65
2021/07/06 06:15:43;;;;;;;5.53;2.40;;;;;;;22.13;55.25;97161.88;5052501;28;20108;-71
2021/07/06 06:18:08;;;;;;;3.47;2.53;;;;;;;22.21;56.07;97166.34;5052295;28;20025;-73
2021/07/06 06:20:34;;;;;;;4.95;2.70;;;;;;;22.34;54.91;97171.91;5035178;28;20035;-74
2021/07/06 06:22:59;;;;;;;5.25;2.78;;;;;;;22.45;55.32;97170.50;5053200;28;20091;-72
2021/07/06 06:25:25;;;;;;;5.13;2.50;;;;;;;22.46;58.95;97174.94;5053199;28;20484;-69
2021/07/06 06:27:50;;;;;;;6.65;2.60;;;;;;;22.46;60.69;97179.56;5052270;28;20025;-68
2021/07/06 06:30:16;;;;;;;7.78;2.90;;;;;;;22.65;59.39;97176.06;5053282;28;20025;-67
2021/07/06 06:32:41;;;;;;;8.88;3.00;;;;;;;22.80;58.32;97172.34;5053593;28;20408;-69
2021/07/06 06:35:07;;;;;;;5.63;2.92;;;;;;;22.84;59.20;97170.88;5052402;28;20025;-71
2021/07/06 06:37:33;;;;;;;6.10;2.70;;;;;;;22.83;58.82;97178.25;5053527;28;20051;-70
2021/07/06 06:39:58;;;;;;;5.22;2.50;;;;;;;22.58;56.84;97188.88;5050804;28;20029;-69
2021/07/06 06:42:24;;;;;;;6.95;2.45;;;;;;;22.56;55.95;97180.88;5050388;28;20041;-68
2021/07/06 06:44:49;;;;;;;4.28;2.50;;;;;;;22.76;54.79;97180.13;5049093;28;20101;-69
2021/07/06 06:47:17;;;;;;;4.05;2.47;;;;;;;22.93;55.10;97174.25;5052139;28;20037;-69
2021/07/06 06:49:42;;;;;;;6.05;2.65;;;;;;;22.96;53.82;97182.09;5052836;28;20427;-69
2021/07/06 06:52:07;;;;;;;3.33;2.28;;;;;;;22.95;53.18;97174.91;5053571;28;20033;-69
2021/07/06 06:54:34;;;;;;;4.75;2.50;;;;;;;22.98;52.98;97182.72;5053996;28;20068;-66
2021/07/06 06:57:00;;;;;;;3.35;2.20;;;;;;;22.92;53.85;97176.16;5053045;28;20112;-67
2021/07/06 06:59:26;;;;;;;6.20;2.60;;;;;;;22.95;53.79;97181.22;5048529;28;20392;-71
2021/07/06 07:02:16;;;;;;;6.00;2.15;;;;;;;23.08;53.33;97175.78;5050391;28;20127;-68
2021/07/06 07:04:36;;;;;;;4.03;2.30;;;;;;;23.07;52.27;97181.47;5053518;28;20106;-66
2021/07/06 07:07:02;;;;;;;6.05;2.70;;;;;;;23.14;51.13;97185.09;5052578;28;20435;-65
2021/07/06 07:09:27;;;;;;;5.10;2.20;;;;;;;23.30;50.56;97183.03;5051175;28;20476;-64
2021/07/06 07:11:53;;;;;;;4.78;2.22;;;;;;;23.39;49.13;97179.88;5050704;28;20036;-65
2021/07/06 07:14:18;;;;;;;3.92;2.22;;;;;;;23.59;49.69;97189.22;5051667;28;20024;-63
2021/07/06 07:16:43;;;;;;;5.75;2.00;;;;;;;23.69;50.00;97179.50;5051007;28;20028;-66
2021/07/06 07:19:09;;;;;;;4.95;2.33;;;;;;;23.81;50.34;97168.72;5051002;28;20139;-65
2021/07/06 07:21:34;;;;;;;2.83;2.33;;;;;;;23.82;50.68;97173.13;5051928;28;20029;-66
2021/07/06 07:24:00;;;;;;;3.65;2.22;;;;;;;23.72;50.05;97176.31;5052318;28;20104;-67
2021/07/06 07:26:25;;;;;;;4.10;2.10;;;;;;;23.76;49.77;97171.25;5052861;28;20469;-70
2021/07/06 07:28:50;;;;;;;3.95;2.03;;;;;;;23.94;49.76;97172.53;5052503;28;20500;-67
2021/07/06 07:31:16;;;;;;;2.78;1.98;;;;;;;23.97;47.39;97166.59;5051528;28;20065;-67
2021/07/06 07:33:41;;;;;;;5.32;1.80;;;;;;;23.85;47.15;97171.88;5048990;28;20119;-66
2021/07/06 07:36:06;;;;;;;5.55;2.20;;;;;;;24.09;46.46;97161.31;5064379;28;20028;-67
2021/07/06 07:38:32;;;;;;;3.95;2.10;;;;;;;24.13;45.89;97160.69;5057226;28;20016;-66
2021/07/06 07:40:57;;;;;;;5.13;2.10;;;;;;;24.20;45.97;97166.16;5064398;28;20373;-65
2021/07/06 07:43:23;;;;;;;3.60;2.00;;;;;;;24.38;47.05;97160.81;5061915;28;20044;-64
2021/07/06 07:45:48;;;;;;;3.83;2.03;;;;;;;24.60;46.07;97168.78;5051415;28;20033;-64
2021/07/06 07:48:13;;;;;;;5.85;1.90;;;;;;;24.71;44.62;97162.63;5069185;28;20048;-64
2021/07/06 07:50:39;;;;;;;4.72;1.70;;;;;;;24.92;43.18;97149.63;5047472;28;20550;-64
2021/07/06 07:53:04;;;;;;;2.00;1.55;;;;;;;25.01;40.73;97155.72;5054408;28;20017;-64
2021/07/06 07:55:30;;;;;;;4.43;1.42;;;;;;;25.07;39.83;97152.91;5056734;28;20033;-65
2021/07/06 07:57:56;;;;;;;1.35;1.20;;;;;;;25.10;38.59;97151.63;5056458;28;20028;-64
2021/07/06 08:00:22;;;;;;;3.00;1.48;;;;;;;25.30;39.62;97148.75;5061458;28;20032;-63
2021/07/06 08:02:47;;;;;;;2.08;1.40;;;;;;;25.13;39.30;97151.19;5063341;28;20593;-64
2021/07/06 08:05:15;;;;;;;1.63;1.50;;;;;;;25.07;39.13;97146.59;5065942;28;20397;-64
2021/07/06 08:07:40;;;;;;;5.65;1.67;;;;;;;25.32;39.87;97140.25;5064076;28;20433;-64
2021/07/06 08:10:07;;;;;;;3.47;1.70;;;;;;;25.47;39.01;97129.81;5058405;28;20078;-63
2021/07/06 08:12:33;;;;;;;2.40;1.50;;;;;;;25.39;38.99;97135.59;5067265;28;20074;-64
2021/07/06 08:14:58;;;;;;;2.30;1.30;;;;;;;25.36;39.06;97142.41;5064119;28;20033;-63
2021/07/06 08:17:23;;;;;;;4.15;1.50;;;;;;;25.62;40.92;97136.91;5063621;28;20064;-63
2021/07/06 08:19:50;;;;;;;2.53;1.48;;;;;;;25.90;40.40;97140.03;5064774;28;20423;-66
2021/07/06 08:22:16;;;;;;;1.40;1.30;;;;;;;25.50;38.78;97134.88;5070252;28;20021;-64
2021/07/06 08:24:41;;;;;;;1.50;1.40;;;;;;;25.33;39.21;97139.22;5058972;28;20036;-65
2021/07/06 08:27:07;;;;;;;2.65;1.40;;;;;;;25.48;40.24;97139.78;5068125;28;20077;-63
2021/07/06 08:29:33;;;;;;;2.45;1.70;;;;;;;25.52;41.06;97138.25;5061251;28;20029;-65
2021/07/06 08:31:59;;;;;;;4.18;1.63;;;;;;;25.57;41.52;97132.06;5072042;28;20039;-65
2021/07/06 08:34:25;;;;;;;2.95;1.60;;;;;;;25.36;39.98;97138.78;5059189;28;20174;-64
2021/07/06 08:36:50;;;;;;;2.53;1.50;;;;;;;25.07;40.60;97128.16;5068348;28;20485;-64
2021/07/06 08:39:16;;;;;;;3.58;1.80;;;;;;;25.27;41.34;97138.19;5062504;28;20028;-64
2021/07/06 08:41:41;;;;;;;1.60;1.40;;;;;;;25.34;42.03;97138.19;5055708;28;20375;-63
2021/07/06 08:44:07;;;;;;;2.35;1.70;;;;;;;25.34;41.81;97141.75;5072091;28;20400;-64
2021/07/06 08:46:36;;;;;;;2.83;1.60;;;;;;;25.56;41.58;97146.88;5060432;28;20017;-64
2021/07/06 08:49:02;;;;;;;2.88;1.60;;;;;;;25.55;39.90;97134.22;5065977;28;20025;-63
2021/07/06 08:51:30;;;;;;;2.22;1.60;;;;;;;25.58;41.78;97141.19;5067739;28;20063;-64
2021/07/06 08:53:55;;;;;;;3.33;1.77;;;;;;;25.66;40.93;97146.41;5055257;28;20052;-63
2021/07/06 08:56:20;;;;;;;2.58;1.75;;;;;;;25.70;40.83;97156.72;5070720;28;20150;-62
2021/07/06 08:58:46;;;;;;;2.33;1.60;;;;;;;25.72;40.54;97143.59;5061960;28;20020;-62
2021/07/06 09:01:12;;;;;;;4.38;1.60;;;;;;;25.83;40.67;97147.53;5065309;28;20104;-62
2021/07/06 09:03:58;;;;;;;2.00;1.60;;;;;;;25.81;40.76;97141.38;5069225;28;20139;-64
2021/07/06 09:06:25;;;;;;;2.95;1.67;;;;;;;25.68;40.39;97147.88;5041928;28;20024;-64
2021/07/06 09:08:52;;;;;;;6.55;2.03;;;;;;;25.77;42.33;97150.34;5067868;28;20103;-64
2021/07/06 09:11:21;;;;;;;4.47;2.20;;;;;;;25.87;41.42;97146.00;5065168;28;20024;-64
2021/07/06 09:13:48;;;;;;;4.88;1.90;;;;;;;25.86;41.69;97146.22;5059968;28;20028;-64
2021/07/06 09:16:25;;;;;;;2.85;1.90;;;;;;;25.87;41.39;97136.91;5057305;28;20056;-62
2021/07/06 09:18:51;;;;;;;5.07;1.95;;;;;;;26.03;41.59;97133.59;5053207;28;20029;-63
2021/07/06 09:21:17;;;;;;;4.97;1.90;;;;;;;26.04;41.75;97137.16;5064348;28;20028;-63
2021/07/06 09:23:44;;;;;;;3.28;1.80;;;;;;;26.08;40.25;97134.81;5055772;28;20028;-63
2021/07/06 09:26:16;;;;;;;4.20;2.10;;;;;;;26.00;41.12;97144.19;5073545;28;20021;-63
2021/07/06 09:28:46;;;;;;;3.05;1.92;;;;;;;26.10;41.08;97139.03;5059938;28;20040;-65
2021/07/06 09:31:28;;;;;;;4.30;2.10;;;;;;;26.09;40.39;97134.56;5055243;28;20028;-65
2021/07/06 09:33:57;;;;;;;3.75;1.75;;;;;;;26.16;40.33;97138.13;5053638;28;20323;-66
2021/07/06 09:36:26;;;;;;;4.70;1.90;;;;;;;26.20;40.23;97139.34;5055038;28;20481;-65
2021/07/06 09:39:03;;;;;;;2.10;1.90;;;;;;;26.15;40.17;97136.44;5055370;28;20032;-64
2021/07/06 09:41:29;;;;;;;4.63;1.90;;;;;;;26.30;39.79;97130.53;5054990;28;20033;-66
2021/07/06 09:43:55;;;;;;;4.60;1.90;;;;;;;26.38;40.74;97123.88;5054867;28;20041;-65
2021/07/06 09:46:23;;;;;;;2.65;1.90;;;;;;;26.31;39.47;97135.00;5054337;28;20108;-65
2021/07/06 09:48:48;;;;;;;5.18;2.50;;;;;;;26.42;40.79;97136.13;5054757;28;20036;-67
2021/07/06 09:51:15;;;;;;;3.85;2.35;;;;;;;26.44;40.46;97142.25;5054834;28;20024;-68
2021/07/06 09:53:41;;;;;;;4.03;2.17;;;;;;;26.55;39.76;97140.63;5053314;28;20071;-68
2021/07/06 09:56:11;;;;;;;4.13;1.80;;;;;;;26.38;39.02;97135.75;5053007;28;20049;-68
2021/07/06 09:59:03;;;;;;;2.30;1.80;;;;;;;26.44;40.26;97128.47;5053188;28;20104;-67
2021/07/06 10:01:29;;;;;;;3.72;2.03;;;;;;;26.42;39.97;97129.75;5052106;28;20028;-67
2021/07/06 10:03:55;;;;;;;6.47;2.20;;;;;;;26.59;40.23;97135.50;5052725;28;20016;-66
2021/07/06 10:06:22;;;;;;;4.47;1.98;;;;;;;26.67;39.62;97133.28;5051819;28;20025;-67
2021/07/06 10:08:50;;;;;;;4.85;2.10;;;;;;;26.75;39.50;97143.19;5053054;28;20025;-67
2021/07/06 10:11:15;;;;;;;3.22;2.10;;;;;;;26.77;39.81;97146.53;5053239;28;20408;-66
2021/07/06 10:13:41;;;;;;;6.57;2.45;;;;;;;26.92;40.66;97139.78;5053316;28;20025;-66
2021/07/06 10:16:06;;;;;;;2.28;1.90;;;;;;;26.95;40.07;97136.53;5053019;28;20033;-67
2021/07/06 10:18:33;;;;;;;4.75;2.30;;;;;;;27.06;40.20;97146.81;5052146;28;20029;-67
2021/07/06 10:20:59;;;;;;;3.70;2.05;;;;;;;26.79;38.55;97149.06;5053016;28;20025;-66
2021/07/06 10:23:25;;;;;;;3.95;2.10;;;;;;;26.82;39.05;97143.09;5053034;28;20021;-66
2021/07/06 10:25:56;;;;;;;5.82;2.33;;;;;;;26.66;38.65;97137.09;5052960;28;20028;-67
2021/07/06 10:28:23;;;;;;;5.63;2.35;;;;;;;26.72;39.17;97135.38;5052927;28;20477;-67
2021/07/06 10:30:49;;;;;;;5.35;2.22;;;;;;;26.94;38.72;97134.84;5051573;28;20032;-66
2021/07/06 10:33:33;;;;;;;5.03;2.40;;;;;;;27.02;38.79;97137.31;5052928;28;20028;-66
2021/07/06 10:36:00;;;;;;;4.82;2.40;;;;;;;27.05;39.24;97142.34;5052791;28;20021;-65
2021/07/06 10:40:54;;;;;;;6.70;2.35;;;;;;;27.02;36.97;97135.38;5052980;28;20029;-66
2021/07/06 10:43:30;;;;;;;4.47;2.40;;;;;;;26.93;38.63;97131.28;5052374;28;20060;-66
2021/07/06 10:45:56;;;;;;;7.57;2.40;;;;;;;27.10;38.26;97136.97;5052624;28;20055;-66
2021/07/06 10:48:42;;;;;;;3.38;2.20;;;;;;;26.89;39.15;97139.16;5052524;28;20116;-66
2021/07/06 10:51:08;;;;;;;4.95;2.28;;;;;;;27.15;38.86;97139.88;5052523;28;20381;-66
2021/07/06 10:53:33;;;;;;;4.75;2.50;;;;;;;27.18;38.96;97144.94;5052494;28;20025;-66
2021/07/06 10:56:12;;;;;;;4.30;2.22;;;;;;;26.98;39.77;97144.34;5052261;28;20056;-66
2021/07/06 10:59:07;;;;;;;6.07;2.47;;;;;;;27.14;40.69;97140.09;5052013;28;20021;-66
2021/07/06 11:01:35;;;;;;;5.38;2.65;;;;;;;27.03;39.95;97136.22;5051537;28;20120;-66
2021/07/06 11:04:01;;;;;;;4.68;2.40;;;;;;;27.05;41.22;97136.84;5050866;28;20057;-66
2021/07/06 11:06:48;;;;;;;5.88;2.50;;;;;;;27.13;40.83;97135.66;5050765;28;20067;-66
2021/07/06 11:09:19;;;;;;;6.95;3.30;;;;;;;27.15;39.37;97133.50;5051995;28;20396;-66
2021/07/06 11:11:45;;;;;;;6.93;3.30;;;;;;;27.20;39.33;97130.88;5052131;28;20029;-66
2021/07/06 11:14:21;;;;;;;5.90;3.40;;;;;;;27.05;39.14;97123.88;5050959;28;20070;-66
2021/07/06 11:16:57;;;;;;;9.00;3.20;;;;;;;27.25;39.93;97117.22;5051971;28;20021;-65
2021/07/06 11:19:35;;;;;;;5.80;3.05;;;;;;;27.06;40.38;97124.72;5051929;28;20032;-66
2021/07/06 11:22:10;;;;;;;6.93;3.05;;;;;;;27.02;40.62;97126.28;5051025;28;20036;-66
2021/07/06 11:24:40;;;;;;;5.40;3.10;;;;;;;27.25;40.49;97116.38;5050594;28;20025;-66
2021/07/06 11:27:05;;;;;;;7.13;3.15;;;;;;;27.51;40.00;97116.00;5051776;28;20094;-66
2021/07/06 11:29:35;;;;;;;7.30;2.95;;;;;;;27.71;39.42;97123.09;5050447;28;20481;-66
2021/07/06 11:32:11;;;;;;;5.07;3.03;;;;;;;27.14;39.72;97105.06;5050729;28;20029;-66